Time;durP1;ratioP1;P1;durP2;ratioP2;P2;SDS_P1;SDS_P2;PMS_P1;PMS_P2;Temp;Humidity;BMP_temperature;BMP_pressure;BME280_temperature;BME280_humidity;BME280_pressure;Samples;Min_cycle;Max_cycle;Signal;HPM_P1;HPM_P2
2023/09/01 00:01:48;;;;;;;;;30.80;28.40;;;;;18.34;69.43;99564.91;5055844;28;8932;-78
2023/09/01 00:04:28;;;;;;;;;31.60;31.20;;;;;18.31;69.04;99564.25;5070403;28;8843;-78
2023/09/01 00:06:57;;;;;;;;;24.60;23.80;;;;;18.20;67.80;99561.28;5069177;28;8818;-78
2023/09/01 00:09:26;;;;;;;;;22.80;22.80;;;;;18.38;68.34;99564.75;5033317;28;8980;-77
2023/09/01 00:11:55;;;;;;;;;24.80;24.20;;;;;18.36;68.38;99567.50;5049516;28;8828;-75
2023/09/01 00:14:23;;;;;;;;;23.40;23.40;;;;;18.53;69.01;99558.59;5066085;28;8907;-76
2023/09/01 00:16:54;;;;;;;;;22.60;22.60;;;;;18.58;68.31;99561.03;5069794;28;8870;-77
2023/09/01 00:19:23;;;;;;;;;23.00;22.60;;;;;18.61;67.09;99555.53;5086222;28;8912;-77
2023/09/01 00:21:52;;;;;;;;;28.80;27.40;;;;;18.65;68.05;99554.44;5086702;28;8922;-76
2023/09/01 00:24:21;;;;;;;;;27.40;24.40;;;;;18.73;68.47;99553.06;5069302;28;8846;-77
2023/09/01 00:26:50;;;;;;;;;22.40;21.20;;;;;18.77;68.22;99552.91;5069170;28;8849;-78
2023/09/01 00:29:18;;;;;;;;;22.40;21.80;;;;;18.73;67.89;99555.72;5036106;28;8845;-77
2023/09/01 00:31:47;;;;;;;;;25.80;23.40;;;;;18.79;68.21;99548.38;5045811;28;8830;-77
2023/09/01 00:34:17;;;;;;;;;19.40;18.40;;;;;18.67;66.71;99550.75;5045829;28;9705;-77
2023/09/01 00:36:49;;;;;;;;;21.00;21.00;;;;;18.49;66.83;99560.56;5046092;28;8850;-77
2023/09/01 00:39:17;;;;;;;;;23.00;23.00;;;;;18.21;67.77;99555.00;5013045;28;8831;-79
2023/09/01 00:41:46;;;;;;;;;23.20;20.20;;;;;18.05;68.01;99554.97;5029727;28;8858;-75
2023/09/01 00:44:15;;;;;;;;;22.40;20.40;;;;;17.74;67.91;99549.38;5031944;28;8858;-76
2023/09/01 00:46:46;;;;;;;;;21.80;21.00;;;;;17.25;70.53;99550.91;5065773;28;8925;-77
2023/09/01 00:49:18;;;;;;;;;28.40;27.60;;;;;16.88;72.00;99552.69;5011137;28;8859;-75
2023/09/01 00:51:48;;;;;;;;;27.20;26.60;;;;;17.26;70.89;99556.19;4981215;28;8851;-78
2023/09/01 00:54:17;;;;;;;;;26.80;24.80;;;;;16.82;72.13;99556.47;5019954;28;8977;-76
2023/09/01 00:56:48;;;;;;;;;24.00;24.00;;;;;16.54;72.79;99568.34;5034061;28;8859;-79
2023/09/01 00:59:17;;;;;;;;;25.80;24.60;;;;;16.27;74.31;99567.78;5041964;28;8863;-77
2023/09/01 01:01:46;;;;;;;;;25.40;24.20;;;;;16.21;74.62;99568.06;5031239;28;8882;-78
2023/09/01 01:04:18;;;;;;;;;25.60;25.40;;;;;15.91;76.02;99578.22;5069339;28;8871;-77
2023/09/01 01:06:56;;;;;;;;;24.40;22.60;;;;;16.11;74.93;99574.69;5069625;28;8960;-75
2023/09/01 01:09:34;;;;;;;;;21.60;21.60;;;;;16.14;75.27;99585.16;5052765;28;8868;-77
2023/09/01 01:12:10;;;;;;;;;23.60;23.60;;;;;16.42;74.36;99577.72;5052803;28;8843;-77
2023/09/01 01:14:46;;;;;;;;;27.00;24.00;;;;;16.56;74.22;99578.91;5069124;28;8867;-76
2023/09/01 01:17:18;;;;;;;;;23.80;21.40;;;;;16.43;73.79;99575.91;5069573;28;8859;-75
2023/09/01 01:19:51;;;;;;;;;29.00;27.00;;;;;16.45;73.68;99574.06;5074152;28;9594;-77
2023/09/01 01:22:38;;;;;;;;;22.60;22.00;;;;;16.53;72.98;99576.38;5090904;28;9704;-76
2023/09/01 01:25:11;;;;;;;;;27.40;23.80;;;;;16.38;74.24;99572.63;5091768;28;8847;-77
2023/09/01 01:27:43;;;;;;;;;24.20;22.40;;;;;16.71;73.79;99585.31;5090852;28;8875;-76
2023/09/01 01:30:13;;;;;;;;;24.60;23.80;;;;;16.64;73.26;99578.56;5072901;28;8854;-77
2023/09/01 01:32:43;;;;;;;;;20.60;20.60;;;;;16.33;74.68;99579.91;5071542;28;8889;-77
2023/09/01 01:35:20;;;;;;;;;22.80;22.80;;;;;16.12;75.39;99584.38;5070124;28;8970;-76
2023/09/01 01:37:57;;;;;;;;;25.00;24.20;;;;;16.23;74.79;99590.06;5086954;28;8834;-77
2023/09/01 01:40:30;;;;;;;;;26.00;25.40;;;;;16.08;75.68;99583.66;5086880;28;8858;-77
2023/09/01 01:43:03;;;;;;;;;23.20;21.20;;;;;16.15;75.94;99578.91;5070071;28;8842;-77
2023/09/01 01:45:32;;;;;;;;;25.40;23.00;;;;;16.22;75.31;99577.72;5070323;28;8892;-77
2023/09/01 01:48:01;;;;;;;;;28.20;27.40;;;;;16.23;75.06;99580.31;5070584;28;8854;-76
2023/09/01 01:50:32;;;;;;;;;24.00;24.00;;;;;16.31;74.87;99577.31;5018862;28;9013;-78
2023/09/01 01:53:02;;;;;;;;;29.20;27.00;;;;;15.94;76.30;99584.22;5027597;28;8884;-78
2023/09/01 01:55:32;;;;;;;;;24.80;24.40;;;;;15.96;76.57;99578.84;5038228;28;8889;-77
2023/09/01 01:58:04;;;;;;;;;26.20;26.20;;;;;15.95;76.46;99583.31;5030110;28;8868;-77
2023/09/01 02:00:33;;;;;;;;;26.20;26.20;;;;;15.92;76.63;99580.78;5027969;28;8860;-77
2023/09/01 02:03:03;;;;;;;;;24.00;22.40;;;;;15.96;76.26;99579.75;5028385;28;8836;-77
2023/09/01 02:05:32;;;;;;;;;25.00;24.00;;;;;15.98;75.85;99582.28;5012329;28;8899;-77
2023/09/01 02:08:05;;;;;;;;;23.80;22.00;;;;;16.02;75.49;99582.13;5012633;28;8835;-76
2023/09/01 02:10:36;;;;;;;;;27.40;27.40;;;;;16.41;75.07;99575.97;4995876;28;8852;-77
2023/09/01 02:13:05;;;;;;;;;26.20;23.40;;;;;16.62;73.93;99575.97;5028605;28;8879;-75
2023/09/01 02:15:34;;;;;;;;;25.40;24.20;;;;;16.76;73.14;99581.53;4963245;28;8855;-77
2023/09/01 02:18:04;;;;;;;;;24.40;23.80;;;;;16.66;72.69;99582.00;5012032;28;8893;-78
2023/09/01 02:20:36;;;;;;;;;22.60;22.60;;;;;16.74;72.39;99580.72;5048033;28;8862;-78
2023/09/01 02:23:05;;;;;;;;;26.80;25.60;;;;;16.85;72.19;99577.56;5070045;28;8858;-78
2023/09/01 02:25:38;;;;;;;;;29.20;26.60;;;;;17.07;71.82;99576.56;5071763;28;8866;-79
2023/09/01 02:28:07;;;;;;;;;24.40;24.40;;;;;17.08;71.41;99580.94;5070574;28;8858;-77
2023/09/01 02:30:36;;;;;;;;;21.20;21.20;;;;;17.12;70.74;99566.59;5071801;28;8854;-77
2023/09/01 02:33:05;;;;;;;;;25.40;24.60;;;;;17.21;70.70;99576.75;5071204;28;8885;-77
2023/09/01 02:35:35;;;;;;;;;27.60;24.60;;;;;17.12;70.44;99578.06;5068917;28;9008;-76
2023/09/01 02:38:04;;;;;;;;;27.40;25.20;;;;;17.10;70.76;99576.44;5052392;28;8838;-77
2023/09/01 02:40:32;;;;;;;;;19.00;19.00;;;;;16.99;70.97;99576.94;5069047;28;8838;-79
2023/09/01 02:43:03;;;;;;;;;27.60;23.20;;;;;17.10;71.09;99577.28;5070724;28;8842;-78
2023/09/01 02:45:32;;;;;;;;;26.00;26.00;;;;;17.19;70.17;99576.84;5069154;28;8906;-76
2023/09/01 02:48:04;;;;;;;;;21.40;20.60;;;;;17.14;70.35;99578.00;5059121;28;8839;-77
2023/09/01 02:50:33;;;;;;;;;26.00;25.60;;;;;17.14;70.27;99580.66;5067367;28;9631;-76
2023/09/01 02:53:04;;;;;;;;;26.40;25.00;;;;;17.15;70.08;99582.38;5100064;28;8861;-78
2023/09/01 02:55:33;;;;;;;;;25.80;23.00;;;;;17.08;70.17;99583.59;5060061;28;8863;-76
2023/09/01 02:58:05;;;;;;;;;25.80;24.80;;;;;17.05;70.35;99579.28;5033531;28;8877;-77
2023/09/01 03:00:34;;;;;;;;;30.60;26.40;;;;;17.17;70.94;99568.09;5047338;28;8859;-76
2023/09/01 03:03:04;;;;;;;;;24.60;23.60;;;;;17.28;70.96;99562.28;5047031;28;9578;-77
2023/09/01 03:05:33;;;;;;;;;27.20;26.60;;;;;17.35;70.67;99566.38;5047261;28;8863;-77
2023/09/01 03:08:02;;;;;;;;;27.80;27.60;;;;;17.44;70.83;99564.19;5030758;28;8863;-77
2023/09/01 03:10:30;;;;;;;;;22.80;22.80;;;;;17.45;70.21;99566.78;5046959;28;8859;-78
2023/09/01 03:12:59;;;;;;;;;25.40;25.20;;;;;17.23;69.81;99579.34;5046607;28;9037;-76
2023/09/01 03:15:29;;;;;;;;;28.60;26.80;;;;;17.16;69.87;99571.69;5029792;28;9003;-78
2023/09/01 03:17:58;;;;;;;;;23.40;21.60;;;;;17.11;70.60;99573.69;5047095;28;8842;-76
2023/09/01 03:20:27;;;;;;;;;28.60;26.60;;;;;17.18;70.54;99575.13;5048274;28;9582;-79
2023/09/01 03:22:56;;;;;;;;;27.60;24.40;;;;;17.25;70.65;99575.72;5050154;28;8852;-77
2023/09/01 03:25:25;;;;;;;;;29.20;27.40;;;;;17.25;69.89;99575.72;5050566;28;8875;-78
2023/09/01 03:27:54;;;;;;;;;30.00;27.40;;;;;17.28;70.46;99575.56;5036276;28;8844;-78
2023/09/01 03:30:23;;;;;;;;;25.40;23.80;;;;;17.39;70.57;99570.59;5087998;28;8844;-78
2023/09/01 03:32:54;;;;;;;;;42.75;37.50;;;;;17.49;70.45;99571.00;5071249;28;8866;-77
2023/09/01 03:35:23;;;;;;;;;70.00;58.00;;;;;17.50;70.20;99570.06;5088381;28;8888;-79
2023/09/01 03:37:52;;;;;;;;;35.50;31.25;;;;;17.57;70.27;99567.94;5088645;28;8890;-76
2023/09/01 03:40:21;;;;;;;;;35.80;32.60;;;;;17.63;69.79;99567.66;5088507;28;8890;-77
2023/09/01 03:42:50;;;;;;;;;26.60;26.20;;;;;17.68;70.16;99567.44;5092366;28;8859;-78
2023/09/01 03:45:19;;;;;;;;;31.40;29.40;;;;;17.71;69.80;99577.91;5088053;28;8847;-76
2023/09/01 03:47:48;;;;;;;;;29.40;28.40;;;;;17.70;69.71;99579.72;5105260;28;8879;-76
2023/09/01 03:50:18;;;;;;;;;27.60;27.60;;;;;17.73;69.71;99584.00;5042099;28;8878;-77
2023/09/01 03:52:47;;;;;;;;;28.00;27.20;;;;;17.74;69.53;99588.38;5068967;28;8882;-77
2023/09/01 03:55:16;;;;;;;;;27.60;26.60;;;;;17.73;69.76;99589.34;5067797;28;8855;-76
2023/09/01 03:57:45;;;;;;;;;56.00;45.50;;;;;17.72;68.78;99590.25;5067681;28;8908;-76
2023/09/01 04:00:15;;;;;;;;;28.60;27.00;;;;;17.41;69.47;99591.78;5084766;28;8839;-76
2023/09/01 04:02:45;;;;;;;;;32.60;32.00;;;;;17.45;69.48;99590.69;5050451;28;8838;-76
2023/09/01 04:05:14;;;;;;;;;32.40;29.60;;;;;17.47;70.15;99593.28;5068859;28;9608;-78
2023/09/01 04:07:44;;;;;;;;;29.60;29.60;;;;;17.52;70.06;99593.91;5068661;28;8955;-76
2023/09/01 04:10:14;;;;;;;;;30.00;28.60;;;;;17.58;69.69;99596.25;5068081;28;8842;-76
2023/09/01 04:12:43;;;;;;;;;27.80;26.00;;;;;17.62;69.67;99602.28;5040075;28;8900;-77
2023/09/01 04:15:12;;;;;;;;;25.80;25.40;;;;;17.62;69.61;99600.50;5059210;28;8874;-77
2023/09/01 04:17:41;;;;;;;;;30.40;29.80;;;;;17.68;69.68;99604.66;5076473;28;8882;-77
2023/09/01 04:20:10;;;;;;;;;31.80;29.20;;;;;17.64;69.30;99608.41;5086643;28;8836;-77
2023/09/01 04:22:39;;;;;;;;;45.50;39.00;;;;;17.39;69.93;99612.25;5090485;28;8932;-77
2023/09/01 04:25:09;;;;;;;;;33.40;31.60;;;;;17.28;69.20;99601.28;5072094;28;8885;-79
2023/09/01 04:27:38;;;;;;;;;33.40;31.60;;;;;17.10;70.29;99608.31;5027233;28;8860;-77
2023/09/01 04:30:08;;;;;;;;;35.00;32.20;;;;;16.88;71.18;99613.75;5026510;28;8888;-78
2023/09/01 04:32:44;;;;;;;;;37.00;32.20;;;;;16.14;73.98;99617.84;4993955;28;8970;-77
2023/09/01 04:35:15;;;;;;;;;33.40;32.40;;;;;16.00;75.19;99617.56;5010263;28;8868;-77
2023/09/01 04:37:44;;;;;;;;;36.25;32.25;;;;;16.00;74.97;99621.09;4978262;28;8911;-78
2023/09/01 04:40:14;;;;;;;;;35.80;32.40;;;;;15.92;75.00;99623.19;5020728;28;8853;-77
2023/09/01 04:42:43;;;;;;;;;44.75;38.75;;;;;16.07;74.53;99620.81;5045754;28;8877;-79
2023/09/01 04:45:12;;;;;;;;;48.25;39.25;;;;;16.17;73.86;99608.88;4988727;28;8890;-80
2023/09/01 04:47:41;;;;;;;;;36.00;32.40;;;;;15.66;76.51;99628.69;5031689;28;8932;-79
2023/09/01 04:50:11;;;;;;;;;38.25;33.00;;;;;15.78;76.00;99623.78;5029623;28;8955;-78
2023/09/01 04:52:40;;;;;;;;;29.20;28.40;;;;;15.48;77.29;99620.56;5029104;28;8915;-78
2023/09/01 04:55:12;;;;;;;;;31.25;29.50;;;;;15.95;76.40;99625.72;5012131;28;8884;-76
2023/09/01 04:57:42;;;;;;;;;30.40;29.80;;;;;16.37;75.37;99619.50;4988952;28;8866;-78
2023/09/01 05:00:16;;;;;;;;;37.00;31.80;;;;;16.72;74.09;99619.75;5005136;28;8854;-78
2023/09/01 05:02:46;;;;;;;;;38.00;32.75;;;;;17.02;73.83;99619.25;4990281;28;8866;-77
2023/09/01 05:05:15;;;;;;;;;31.20;30.20;;;;;17.22;72.15;99609.50;5033513;28;8939;-79
2023/09/01 05:07:46;;;;;;;;;30.80;29.60;;;;;17.22;70.62;99622.78;5065977;28;8873;-78
2023/09/01 05:10:15;;;;;;;;;31.80;30.20;;;;;17.49;70.93;99620.63;5048703;28;8886;-78
2023/09/01 05:12:45;;;;;;;;;32.60;32.20;;;;;17.53;69.46;99624.84;5049188;28;8855;-76
2023/09/01 05:15:15;;;;;;;;;30.40;26.80;;;;;16.66;71.31;99627.97;5048659;28;8911;-79
2023/09/01 05:17:44;;;;;;;;;36.40;33.20;;;;;16.65;71.62;99634.22;5032215;28;8899;-78
2023/09/01 05:20:13;;;;;;;;;34.60;31.00;;;;;16.24;72.78;99639.53;5048522;28;8892;-78
2023/09/01 05:22:42;;;;;;;;;32.40;30.40;;;;;16.37;72.71;99634.56;5048752;28;8908;-77
2023/09/01 05:25:12;;;;;;;;;27.20;26.40;;;;;16.78;72.45;99638.06;5048954;28;8887;-79
2023/09/01 05:27:41;;;;;;;;;35.20;32.40;;;;;17.12;71.62;99635.66;5048701;28;8844;-77
2023/09/01 05:30:12;;;;;;;;;26.80;25.20;;;;;17.36;70.68;99636.31;5015444;28;8836;-78
2023/09/01 05:32:41;;;;;;;;;32.80;28.40;;;;;17.56;69.65;99638.88;5049006;28;8828;-79
2023/09/01 05:35:10;;;;;;;;;31.00;28.40;;;;;17.80;69.12;99635.94;5059597;28;8869;-78
2023/09/01 05:37:39;;;;;;;;;27.80;26.40;;;;;17.12;68.57;99643.63;5041453;28;8853;-78
2023/09/01 05:40:10;;;;;;;;;25.80;25.40;;;;;16.38;71.48;99660.16;5076172;28;8853;-77
2023/09/01 05:42:38;;;;;;;;;31.20;28.80;;;;;15.90;73.38;99658.66;5093957;28;8833;-78
2023/09/01 05:45:08;;;;;;;;;27.40;27.40;;;;;15.66;75.16;99666.66;5079912;28;8854;-79
2023/09/01 05:47:39;;;;;;;;;26.40;26.40;;;;;15.61;75.62;99666.84;5089828;28;9013;-79
2023/09/01 05:50:08;;;;;;;;;44.00;36.25;;;;;15.77;74.89;99674.19;5077141;28;9707;-78
2023/09/01 05:52:37;;;;;;;;;32.40;29.80;;;;;16.05;74.12;99665.97;5093656;28;8874;-79
2023/09/01 05:55:07;;;;;;;;;32.20;29.80;;;;;16.58;72.65;99668.13;5093867;28;8965;-79
2023/09/01 05:57:36;;;;;;;;;28.80;28.00;;;;;17.05;72.37;99666.94;5111507;28;8847;-78
2023/09/01 06:00:06;;;;;;;;;29.80;28.40;;;;;17.46;71.74;99658.00;5112449;28;9605;-79
2023/09/01 06:02:41;;;;;;;;;27.80;27.00;;;;;17.73;67.55;99661.13;5077850;28;8870;-79
2023/09/01 06:05:10;;;;;;;;;32.80;29.20;;;;;17.71;66.20;99663.84;5093127;28;8864;-79
2023/09/01 06:07:39;;;;;;;;;30.20;29.00;;;;;17.84;66.48;99663.25;5093353;28;8843;-80
2023/09/01 06:10:09;;;;;;;;;26.80;25.60;;;;;18.14;67.41;99660.91;5093051;28;8851;-78
2023/09/01 06:12:38;;;;;;;;;27.80;25.80;;;;;18.45;66.10;99669.97;5111266;28;8843;-79
2023/09/01 06:15:08;;;;;;;;;26.00;26.00;;;;;18.69;65.17;99663.34;5092928;28;8936;-78
2023/09/01 06:17:37;;;;;;;;;26.00;25.00;;;;;18.96;64.45;99664.66;5110910;28;9021;-79
2023/09/01 06:20:16;;;;;;;;;28.20;25.80;;;;;18.72;63.11;99659.66;5076123;28;8968;-77
2023/09/01 06:22:50;;;;;;;;;22.20;21.80;;;;;19.12;63.60;99663.75;5111179;28;8824;-77
2023/09/01 06:25:19;;;;;;;;;22.00;21.00;;;;;19.36;63.75;99665.97;5079914;28;8818;-78
2023/09/01 06:27:48;;;;;;;;;25.00;23.80;;;;;19.58;61.97;99670.16;5048388;28;8854;-78
2023/09/01 06:30:17;;;;;;;;;29.00;27.80;;;;;18.53;61.85;99676.63;5031765;28;9050;-79
2023/09/01 06:32:46;;;;;;;;;21.60;21.00;;;;;18.78;61.58;99661.13;5059181;28;8920;-78
2023/09/01 06:35:18;;;;;;;;;18.20;18.00;;;;;19.17;61.55;99671.47;5068385;28;8885;-80
2023/09/01 06:37:47;;;;;;;;;19.60;19.60;;;;;19.20;61.29;99670.47;5041855;28;8897;-81
2023/09/01 06:40:16;;;;;;;;;24.60;23.80;;;;;19.32;59.50;99672.44;5016099;28;8868;-80
2023/09/01 06:42:45;;;;;;;;;24.20;23.80;;;;;18.67;61.21;99680.38;5048036;28;8866;-78
2023/09/01 06:45:14;;;;;;;;;20.40;20.40;;;;;18.86;60.46;99672.28;5040655;28;8871;-76
2023/09/01 06:47:43;;;;;;;;;21.40;20.80;;;;;18.15;63.45;99678.56;5066701;28;8855;-79
2023/09/01 06:50:12;;;;;;;;;21.00;19.20;;;;;18.68;63.66;99682.06;5017532;28;8863;-78
2023/09/01 06:52:42;;;;;;;;;21.20;19.60;;;;;17.88;64.06;99689.59;5049786;28;8855;-78
2023/09/01 06:55:12;;;;;;;;;23.60;22.80;;;;;18.16;64.58;99690.94;5066819;28;9618;-79
2023/09/01 06:57:41;;;;;;;;;24.00;22.80;;;;;17.43;65.32;99690.88;5050028;28;8879;-78
2023/09/01 07:00:11;;;;;;;;;18.60;17.80;;;;;17.89;65.33;99699.31;5108735;28;8840;-78
2023/09/01 07:02:40;;;;;;;;;27.00;24.00;;;;;18.21;64.43;99696.03;5109878;28;8859;-77
2023/09/01 07:05:09;;;;;;;;;21.80;20.60;;;;;18.69;63.42;99695.31;5073004;28;8845;-77
2023/09/01 07:07:38;;;;;;;;;19.40;19.40;;;;;18.98;61.83;99692.06;5071652;28;8838;-78
2023/09/01 07:10:09;;;;;;;;;23.40;23.20;;;;;19.39;61.74;99703.16;5071930;28;8877;-79
2023/09/01 07:12:38;;;;;;;;;19.00;18.20;;;;;19.69;60.94;99697.09;5075857;28;9571;-76
2023/09/01 07:15:08;;;;;;;;;22.00;20.60;;;;;19.73;58.44;99703.97;5074675;28;8861;-77
2023/09/01 07:17:37;;;;;;;;;22.00;20.80;;;;;19.55;58.39;99708.50;5037322;28;8857;-78
2023/09/01 07:20:07;;;;;;;;;20.20;19.40;;;;;19.98;58.02;99710.56;5088907;28;8854;-78
2023/09/01 07:22:36;;;;;;;;;21.20;18.60;;;;;20.08;56.44;99709.94;5089805;28;9606;-77
2023/09/01 07:25:09;;;;;;;;;20.00;20.00;;;;;20.34;56.16;99706.72;5089615;28;8885;-79
2023/09/01 07:27:39;;;;;;;;;23.40;23.00;;;;;20.62;56.16;99719.28;5089840;28;8846;-80
2023/09/01 07:30:13;;;;;;;;;22.40;21.20;;;;;20.81;55.06;99716.38;5108739;28;8862;-77
2023/09/01 07:32:42;;;;;;;;;22.00;22.00;;;;;20.83;53.14;99722.47;5109176;28;8896;-81
2023/09/01 07:35:11;;;;;;;;;23.60;21.80;;;;;20.77;54.66;99715.69;5096303;28;8846;-79
2023/09/01 07:37:40;;;;;;;;;19.40;18.40;;;;;20.45;54.36;99715.81;5088979;28;8838;-78
2023/09/01 07:40:09;;;;;;;;;21.20;19.60;;;;;20.20;55.64;99713.72;5043029;28;8852;-78
2023/09/01 07:42:40;;;;;;;;;29.60;25.80;;;;;20.15;54.57;99712.25;5109507;28;8862;-76
2023/09/01 07:45:09;;;;;;;;;25.00;25.00;;;;;20.46;56.12;99719.34;5056847;28;9705;-78
2023/09/01 07:47:38;;;;;;;;;21.40;19.60;;;;;20.81;55.48;99721.72;5092045;28;8847;-78
2023/09/01 07:50:07;;;;;;;;;21.20;20.60;;;;;21.21;53.67;99714.78;5074215;28;8851;-80
2023/09/01 07:52:37;;;;;;;;;21.20;21.20;;;;;21.04;52.33;99710.47;5091432;28;8924;-78
2023/09/01 07:55:06;;;;;;;;;21.80;21.80;;;;;21.36;53.53;99717.44;5091295;28;8959;-80
2023/09/01 07:57:35;;;;;;;;;21.80;21.40;;;;;21.68;52.12;99712.75;5057757;28;8851;-77
2023/09/01 08:00:07;;;;;;;;;20.40;20.40;;;;;21.03;51.78;99724.81;5039769;28;9566;-78
2023/09/01 08:02:46;;;;;;;;;17.80;17.80;;;;;21.06;49.73;99721.09;5109485;28;9679;-78
2023/09/01 08:05:15;;;;;;;;;13.80;13.20;;;;;20.81;49.72;99716.38;5091059;28;9651;-81
2023/09/01 08:07:46;;;;;;;;;12.80;12.80;;;;;19.76;51.17;99725.09;5090192;28;8870;-78
2023/09/01 08:10:15;;;;;;;;;18.60;17.40;;;;;19.87;52.98;99728.03;5090631;28;8863;-78
2023/09/01 08:12:44;;;;;;;;;22.60;22.60;;;;;19.75;54.39;99720.72;5040569;28;9079;-79
2023/09/01 08:15:14;;;;;;;;;23.00;21.00;;;;;19.34;55.45;99721.19;5099580;28;8901;-77
2023/09/01 08:17:43;;;;;;;;;18.20;18.20;;;;;18.94;55.15;99728.66;5070717;28;8837;-77
2023/09/01 08:20:12;;;;;;;;;19.60;18.60;;;;;19.47;54.73;99730.22;5089252;28;8870;-80
2023/09/01 08:22:42;;;;;;;;;18.60;18.60;;;;;19.85;55.04;99729.91;5071329;28;8838;-80
2023/09/01 08:25:11;;;;;;;;;20.00;19.40;;;;;20.32;53.94;99722.81;5079388;28;8881;-80
2023/09/01 08:27:40;;;;;;;;;20.00;18.40;;;;;20.30;52.25;99722.06;5055152;28;8912;-79
2023/09/01 08:30:09;;;;;;;;;21.00;17.20;;;;;19.96;53.38;99724.00;5081650;28;9056;-80
2023/09/01 08:32:42;;;;;;;;;19.80;17.60;;;;;20.51;51.77;99724.41;5055289;28;8857;-79
2023/09/01 08:35:12;;;;;;;;;15.80;15.20;;;;;20.45;50.40;99729.16;5089406;28;8852;-79
2023/09/01 08:37:41;;;;;;;;;18.20;14.20;;;;;19.69;52.35;99723.75;5087655;28;8826;-77
2023/09/01 08:40:11;;;;;;;;;15.00;13.20;;;;;19.99;53.02;99718.47;5088553;28;8988;-78
2023/09/01 08:42:46;;;;;;;;;13.20;11.60;;;;;20.70;52.30;99721.50;5070288;28;8861;-78
2023/09/01 08:45:16;;;;;;;;;7.80;7.00;;;;;21.00;50.24;99714.31;5070383;28;8866;-79
2023/09/01 08:47:48;;;;;;;;;14.60;14.00;;;;;20.75;50.87;99722.94;5088735;28;8864;-78
2023/09/01 08:50:19;;;;;;;;;12.20;12.20;;;;;20.53;50.79;99717.16;5088431;28;8896;-80
2023/09/01 08:52:49;;;;;;;;;13.80;12.80;;;;;21.10;50.02;99711.06;5070395;28;8846;-79
2023/09/01 08:55:18;;;;;;;;;15.40;14.20;;;;;21.21;50.16;99714.78;5088407;28;8845;-79
2023/09/01 08:57:48;;;;;;;;;11.40;10.00;;;;;20.60;48.80;99718.53;5047162;28;8955;-78
2023/09/01 09:00:18;;;;;;;;;15.80;14.60;;;;;20.08;50.40;99719.75;5070163;28;8845;-78
2023/09/01 09:02:48;;;;;;;;;11.00;10.60;;;;;20.27;50.67;99712.44;5070214;28;8854;-78
2023/09/01 09:05:34;;;;;;;;;14.00;14.00;;;;;20.92;50.69;99715.72;5087922;28;9627;-77
2023/09/01 09:08:06;;;;;;;;;15.20;14.60;;;;;21.42;50.42;99717.06;5070099;28;8927;-78
2023/09/01 09:10:35;;;;;;;;;14.20;13.80;;;;;21.70;48.76;99712.66;5089979;28;8877;-78
2023/09/01 09:13:20;;;;;;;;;11.00;11.00;;;;;22.14;47.88;99714.22;5074187;28;8829;-78
2023/09/01 09:16:07;;;;;;;;;16.80;16.80;;;;;22.31;45.32;99722.00;5057210;28;8838;-78
2023/09/01 09:18:38;;;;;;;;;10.80;10.60;;;;;22.61;46.24;99719.03;5092171;28;8822;-79
2023/09/01 09:21:23;;;;;;;;;11.80;10.80;;;;;22.97;44.59;99720.16;5098421;28;8975;-77
2023/09/01 09:23:53;;;;;;;;;10.40;10.40;;;;;23.10;44.01;99728.22;5110471;28;8945;-78
2023/09/01 09:26:38;;;;;;;;;15.40;15.40;;;;;23.13;42.95;99722.66;5101071;28;8842;-79
2023/09/01 09:29:11;;;;;;;;;13.00;12.20;;;;;23.03;44.03;99724.25;5058132;28;8834;-79
2023/09/01 09:31:40;;;;;;;;;14.60;14.00;;;;;22.91;43.20;99728.66;5093367;28;8837;-76
2023/09/01 09:34:15;;;;;;;;;17.00;17.00;;;;;23.01;42.88;99723.50;5057491;28;8870;-78
2023/09/01 09:36:45;;;;;;;;;16.60;15.20;;;;;23.27;44.42;99723.50;5032875;28;8870;-79
2023/09/01 09:39:24;;;;;;;;;13.00;12.20;;;;;23.55;42.49;99728.59;5032404;28;8936;-78
2023/09/01 09:41:53;;;;;;;;;12.40;12.40;;;;;23.45;42.12;99727.53;5032137;28;9013;-79
2023/09/01 09:44:24;;;;;;;;;9.80;9.80;;;;;23.63;41.11;99728.06;5031949;28;8850;-78
2023/09/01 09:46:54;;;;;;;;;12.60;12.60;;;;;22.62;41.79;99738.69;5048559;28;9030;-78
2023/09/01 09:49:25;;;;;;;;;13.40;12.60;;;;;22.59;43.57;99726.34;5049910;28;8891;-78
2023/09/01 09:51:54;;;;;;;;;13.40;13.40;;;;;22.94;42.58;99725.78;5051839;28;8901;-80
2023/09/01 09:54:26;;;;;;;;;13.80;13.00;;;;;23.22;42.68;99723.78;5051557;28;8844;-80
2023/09/01 09:56:55;;;;;;;;;15.00;14.00;;;;;23.22;42.25;99722.94;5068547;28;8840;-78
2023/09/01 09:59:28;;;;;;;;;13.40;13.40;;;;;22.94;42.65;99722.19;5051587;28;9054;-81
2023/09/01 10:02:05;;;;;;;;;14.60;14.60;;;;;22.29;43.70;99718.56;5068404;28;9084;-78
2023/09/01 10:04:37;;;;;;;;;15.20;15.20;;;;;22.03;44.55;99714.91;5035011;28;8860;-78
2023/09/01 10:07:05;;;;;;;;;13.80;13.60;;;;;22.48;44.02;99715.50;5068596;28;8851;-79
2023/09/01 10:09:34;;;;;;;;;17.20;17.20;;;;;21.44;46.04;99726.69;5067980;28;8859;-79
2023/09/01 10:12:05;;;;;;;;;18.60;18.60;;;;;20.96;47.49;99720.78;5075754;28;8982;-77
2023/09/01 10:14:37;;;;;;;;;20.20;17.00;;;;;21.16;46.99;99718.69;5114222;28;8863;-78
2023/09/01 10:17:06;;;;;;;;;18.00;18.00;;;;;21.62;45.93;99714.00;5115620;28;8860;-77
2023/09/01 10:19:37;;;;;;;;;14.60;14.20;;;;;22.18;47.56;99713.03;5117542;28;9003;-81
2023/09/01 10:22:05;;;;;;;;;18.20;18.20;;;;;22.04;44.69;99722.00;5111202;28;8849;-80
2023/09/01 10:24:34;;;;;;;;;15.40;15.40;;;;;22.01;43.91;99716.84;5073925;28;8834;-78
2023/09/01 10:27:07;;;;;;;;;13.60;13.00;;;;;22.52;44.19;99719.69;5073323;28;8968;-79
2023/09/01 10:29:37;;;;;;;;;13.20;13.20;;;;;22.92;42.92;99714.31;5091675;28;8938;-79
2023/09/01 10:32:17;;;;;;;;;16.00;16.00;;;;;23.17;41.43;99709.88;5091102;28;8868;-79
2023/09/01 10:34:54;;;;;;;;;15.00;12.00;;;;;22.33;42.40;99717.38;5073098;28;8854;-80
2023/09/01 10:37:27;;;;;;;;;10.60;10.60;;;;;21.80;43.37;99711.94;5021615;28;8869;-78
2023/09/01 10:39:56;;;;;;;;;11.80;10.00;;;;;22.29;44.80;99707.84;5090846;28;8854;-79
2023/09/01 10:42:41;;;;;;;;;11.80;11.40;;;;;22.58;42.35;99711.25;5090089;28;8854;-81
2023/09/01 10:45:12;;;;;;;;;12.00;12.00;;;;;22.73;43.42;99711.13;5027322;28;8864;-78
2023/09/01 10:47:52;;;;;;;;;12.80;12.80;;;;;23.06;42.36;99701.75;5008372;28;8853;-81
2023/09/01 10:50:23;;;;;;;;;11.00;11.00;;;;;23.38;42.28;99697.59;5027147;28;9696;-78
2023/09/01 10:53:30;;;;;;;;;12.20;12.20;;;;;23.78;40.30;99700.06;5027124;28;8942;-78
2023/09/01 10:56:09;;;;;;;;;14.40;13.40;;;;;24.03;40.45;99698.25;5009905;28;8861;-80
2023/09/01 10:58:47;;;;;;;;;14.60;14.00;;;;;24.17;39.04;99697.25;5035972;28;9752;-80
2023/09/01 11:01:32;;;;;;;;;13.00;12.60;;;;;24.43;38.70;99702.47;5046344;28;8873;-80
2023/09/01 11:04:32;;;;;;;;;14.00;14.00;;;;;24.97;39.24;99699.19;4980833;28;8862;-81
2023/09/01 11:07:08;;;;;;;;;11.60;10.00;;;;;25.13;37.82;99694.31;4997395;28;8888;-77
2023/09/01 11:09:55;;;;;;;;;12.40;12.40;;;;;25.01;37.18;99702.47;5047295;28;8862;-80
2023/09/01 11:12:32;;;;;;;;;10.00;10.00;;;;;25.34;39.10;99692.72;4997553;28;8850;-79
2023/09/01 11:15:05;;;;;;;;;12.40;12.40;;;;;24.35;38.58;99689.63;5042065;28;8870;-80
2023/09/01 11:17:37;;;;;;;;;12.00;12.00;;;;;24.01;38.95;99685.91;5104685;28;8848;-79
2023/09/01 11:20:09;;;;;;;;;14.40;14.00;;;;;24.51;39.30;99686.63;5095856;28;9629;-79
2023/09/01 11:22:41;;;;;;;;;16.20;15.60;;;;;24.86;37.65;99688.41;5092667;28;8856;-80
2023/09/01 11:25:13;;;;;;;;;16.00;16.00;;;;;24.90;36.98;99688.03;5110369;28;8946;-78
2023/09/01 11:27:48;;;;;;;;;14.20;14.20;;;;;25.01;38.18;99684.50;5111335;28;8862;-79
2023/09/01 11:30:18;;;;;;;;;12.60;12.60;;;;;24.76;37.35;99677.53;5110140;28;8863;-79
2023/09/01 11:32:48;;;;;;;;;12.40;12.40;;;;;25.21;37.41;99669.47;5089593;28;9089;-79
2023/09/01 11:35:25;;;;;;;;;17.00;15.40;;;;;25.43;38.29;99670.44;5088866;28;8868;-79
2023/09/01 11:37:55;;;;;;;;;15.80;15.80;;;;;24.73;37.32;99667.84;5087976;28;8930;-80
2023/09/01 11:40:26;;;;;;;;;14.80;14.60;;;;;24.91;36.74;99664.72;5019860;28;8846;-78
2023/09/01 11:42:55;;;;;;;;;14.20;13.80;;;;;25.40;37.70;99665.34;5071139;28;8892;-78